Time;durP1;ratioP1;P1;durP2;ratioP2;P2;SDS_P1;SDS_P2;PMS_P1;PMS_P2;Temp;Humidity;BMP_temperature;BMP_pressure;BME280_temperature;BME280_humidity;BME280_pressure;Samples;Min_cycle;Max_cycle;Signal;HPM_P1;HPM_P2
2024/01/01 00:30:20;;;;;;;;;;;;;;;6.26;53.93;100931.63;106043;1253;68353;-80
2024/01/01 00:32:48;;;;;;;;;;;;;;;5.86;54.79;100927.48;106581;1251;72695;-79
2024/01/01 00:35:18;;;;;;;;;;;;;;;5.85;55.01;100928.47;106180;1256;59739;-78
2024/01/01 00:37:52;;;;;;;;;;;;;;;5.79;55.32;100932.56;106144;1253;59387;-79
2024/01/01 00:40:26;;;;;;;;;;;;;;;5.67;55.75;100931.32;106019;1253;71695;-79
2024/01/01 00:42:53;;;;;;;;;;;;;;;5.64;55.75;100932.96;106229;1253;68349;-79
2024/01/01 00:45:29;;;;;;;;;;;;;;;5.66;55.71;100927.88;106010;1259;72919;-79
2024/01/01 00:48:15;;;;;;;;;;;;;;;5.68;55.96;100925.10;105884;1253;59710;-79
2024/01/01 00:50:49;;;;;;;;;;;;;;;5.63;56.18;100924.05;106511;1251;59783;-79
2024/01/01 00:53:17;;;;;;;;;;;;;;;5.53;56.44;100927.40;106403;1254;71772;-79
2024/01/01 00:55:52;;;;;;;;;;;;;;;5.57;56.55;100926.56;106172;1257;68552;-79
2024/01/01 00:58:26;;;;;;;;;;;;;;;5.55;56.79;100921.27;106183;1253;72820;-79
2024/01/01 01:01:02;;;;;;;;;;;;;;;5.41;56.93;100912.63;106010;1252;59842;-80
2024/01/01 01:03:34;;;;;;;;;;;;;;;5.34;57.12;100911.69;106100;1256;60292;-79
2024/01/01 01:06:07;;;;;;;;;;;;;;;5.30;57.49;100909.21;106006;1251;72308;-78
2024/01/01 01:08:53;;;;;;;;;;;;;;;5.26;57.62;100914.87;106364;1256;68483;-80
2024/01/01 01:11:27;;;;;;;;;;;;;;;5.23;58.01;100913.21;106336;1253;73244;-79
2024/01/01 01:13:56;;;;;;;;;;;;;;;5.20;57.98;100916.04;106104;1253;59631;-79
2024/01/01 01:16:29;;;;;;;;;;;;;;;5.27;58.03;100907.63;105869;1253;61083;-78
2024/01/01 01:19:04;;;;;;;;;;;;;;;5.35;57.83;100902.02;105985;1258;71214;-80
2024/01/01 01:21:38;;;;;;;;;;;;;;;5.45;57.48;100904.22;105998;1253;67178;-80
2024/01/01 01:24:06;;;;;;;;;;;;;;;5.58;56.94;100898.41;106091;1257;70088;-78
2024/01/01 01:26:40;;;;;;;;;;;;;;;5.69;56.70;100900.23;106126;1257;60565;-80
2024/01/01 01:29:14;;;;;;;;;;;;;;;5.71;56.43;100897.30;106688;1253;60400;-80
2024/01/01 01:31:48;;;;;;;;;;;;;;;5.70;56.45;100896.40;106216;1253;72869;-79
2024/01/01 01:34:18;;;;;;;;;;;;;;;5.58;56.85;100895.03;106327;1253;68688;-79
2024/01/01 01:36:52;;;;;;;;;;;;;;;5.53;57.22;100892.36;106750;1253;72655;-79
2024/01/01 01:39:26;;;;;;;;;;;;;;;5.54;57.07;100883.74;105993;1257;60623;-78
2024/01/01 01:42:00;;;;;;;;;;;;;;;5.64;56.90;100887.95;106018;1257;60347;-79
2024/01/01 01:44:27;;;;;;;;;;;;;;;5.87;56.48;100880.31;105909;1253;72595;-79
2024/01/01 01:47:01;;;;;;;;;;;;;;;5.88;56.61;100886.60;105910;1259;67259;-79
2024/01/01 01:49:35;;;;;;;;;;;;;;;5.91;56.98;100882.11;106180;1257;72717;-79
2024/01/01 01:52:03;;;;;;;;;;;;;;;5.98;57.42;100872.37;106281;1257;60628;-80
2024/01/01 01:54:37;;;;;;;;;;;;;;;6.07;57.57;100862.25;106113;1258;60435;-79
2024/01/01 01:57:11;;;;;;;;;;;;;;;5.92;58.74;100869.29;106034;1258;75248;-80
2024/01/01 01:59:45;;;;;;;;;;;;;;;5.94;59.58;100871.84;106031;1256;67376;-79
2024/01/01 02:02:19;;;;;;;;;;;;;;;6.10;59.84;100870.17;105974;1252;72619;-79
2024/01/01 02:04:52;;;;;;;;;;;;;;;6.20;60.01;100861.23;105905;1254;60550;-79
2024/01/01 02:07:27;;;;;;;;;;;;;;;6.14;60.51;100855.45;106029;1253;60483;-79
2024/01/01 02:10:00;;;;;;;;;;;;;;;6.22;61.32;100855.84;106008;1257;73823;-80
2024/01/01 02:12:35;;;;;;;;;;;;;;;6.29;61.29;100843.33;106729;1254;68431;-80
2024/01/01 02:15:09;;;;;;;;;;;;;;;6.35;61.80;100839.60;106062;1259;73194;-80
2024/01/01 02:17:45;;;;;;;;;;;;;;;6.54;61.70;100844.41;106191;1254;63377;-79
2024/01/01 02:20:19;;;;;;;;;;;;;;;6.70;61.10;100845.35;105994;1258;60328;-80
2024/01/01 02:22:56;;;;;;;;;;;;;;;6.79;60.70;100844.21;105873;1253;73222;-79
2024/01/01 02:25:30;;;;;;;;;;;;;;;6.80;61.10;100830.05;106173;1253;68712;-79
2024/01/01 02:28:04;;;;;;;;;;;;;;;6.84;61.17;100828.10;106001;1253;72412;-79
2024/01/01 02:30:38;;;;;;;;;;;;;;;6.84;61.52;100832.67;106271;1259;60464;-79
2024/01/01 02:33:14;;;;;;;;;;;;;;;6.85;61.81;100822.10;105862;1253;60433;-80
2024/01/01 02:35:48;;;;;;;;;;;;;;;6.90;62.10;100813.91;105947;1258;73798;-79
2024/01/01 02:38:22;;;;;;;;;;;;;;;6.92;62.47;100813.36;105988;1258;67356;-79
2024/01/01 02:40:56;;;;;;;;;;;;;;;7.05;62.29;100817.65;105970;1253;72663;-80
2024/01/01 02:43:30;;;;;;;;;;;;;;;7.02;62.99;100812.11;105925;1259;60808;-79
2024/01/01 02:46:04;;;;;;;;;;;;;;;7.12;62.64;100817.81;106586;1253;60541;-80
2024/01/01 02:48:38;;;;;;;;;;;;;;;7.13;62.86;100821.73;105989;1258;73838;-79
2024/01/01 02:51:12;;;;;;;;;;;;;;;7.10;63.12;100821.80;106027;1258;67233;-80
2024/01/01 02:53:47;;;;;;;;;;;;;;;7.11;63.50;100816.37;105766;1253;72927;-79
2024/01/01 02:56:24;;;;;;;;;;;;;;;7.18;63.46;100811.05;106095;1258;60892;-80
2024/01/01 02:58:58;;;;;;;;;;;;;;;7.13;63.34;100810.80;106067;1256;60462;-81
2024/01/01 03:01:31;;;;;;;;;;;;;;;7.09;63.35;100807.27;105840;1253;73836;-80
2024/01/01 03:04:05;;;;;;;;;;;;;;;7.10;63.48;100805.60;105964;1253;67724;-81
2024/01/01 03:06:39;;;;;;;;;;;;;;;7.04;63.41;100807.73;105896;1257;73287;-79
2024/01/01 03:09:13;;;;;;;;;;;;;;;6.91;63.74;100807.09;106001;1259;60847;-80
2024/01/01 03:11:47;;;;;;;;;;;;;;;6.80;63.93;100806.46;105980;1257;60379;-79
2024/01/01 03:14:21;;;;;;;;;;;;;;;6.74;64.25;100805.89;106302;1253;73879;-79
2024/01/01 03:16:56;;;;;;;;;;;;;;;6.69;64.01;100799.61;105813;1258;68347;-78
2024/01/01 03:19:30;;;;;;;;;;;;;;;6.52;65.06;100800.69;106076;1258;72644;-79
2024/01/01 03:22:05;;;;;;;;;;;;;;;6.42;65.01;100798.95;107403;1253;60808;-80
2024/01/01 03:24:40;;;;;;;;;;;;;;;6.41;64.68;100794.59;105973;1252;60436;-80
2024/01/01 03:27:15;;;;;;;;;;;;;;;6.35;64.98;100792.95;106345;1254;73797;-79
2024/01/01 03:29:48;;;;;;;;;;;;;;;6.39;64.04;100790.06;105991;1257;68653;-79
2024/01/01 03:32:22;;;;;;;;;;;;;;;6.28;64.35;100789.08;105785;1259;72697;-80
2024/01/01 03:34:56;;;;;;;;;;;;;;;6.32;63.93;100770.70;106168;1256;60966;-80
2024/01/01 03:37:31;;;;;;;;;;;;;;;6.27;63.15;100763.61;106002;1259;60592;-79
2024/01/01 03:40:06;;;;;;;;;;;;;;;6.11;63.15;100767.15;106414;1257;72872;-80
2024/01/01 03:42:40;;;;;;;;;;;;;;;6.07;63.75;100765.48;106777;1257;68982;-80
2024/01/01 03:45:14;;;;;;;;;;;;;;;6.01;63.90;100757.09;106432;1256;70354;-80
2024/01/01 03:47:47;;;;;;;;;;;;;;;6.04;63.70;100755.52;106135;1254;60514;-80
2024/01/01 03:50:21;;;;;;;;;;;;;;;6.03;63.85;100750.02;106024;1252;60511;-80
2024/01/01 03:52:55;;;;;;;;;;;;;;;6.03;63.99;100747.20;106143;1253;72607;-80
2024/01/01 03:55:30;;;;;;;;;;;;;;;6.06;63.83;100745.72;106028;1259;68780;-79
2024/01/01 03:58:04;;;;;;;;;;;;;;;6.16;63.68;100740.45;106921;1255;72818;-80
2024/01/01 04:00:39;;;;;;;;;;;;;;;6.19;63.24;100740.45;105968;1253;60848;-79
2024/01/01 04:03:13;;;;;;;;;;;;;;;6.20;63.65;100733.45;106075;1253;60298;-79
2024/01/01 04:05:46;;;;;;;;;;;;;;;6.24;63.48;100728.27;105804;1253;73852;-79
2024/01/01 04:08:21;;;;;;;;;;;;;;;6.29;63.75;100726.73;105973;1256;68423;-79
2024/01/01 04:10:55;;;;;;;;;;;;;;;6.40;63.93;100725.14;106032;1258;72703;-81
2024/01/01 04:13:29;;;;;;;;;;;;;;;6.43;63.67;100725.08;106157;1257;60918;-79
2024/01/01 04:16:03;;;;;;;;;;;;;;;6.47;62.88;100720.03;106147;1257;60361;-80
2024/01/01 04:18:39;;;;;;;;;;;;;;;6.50;62.57;100711.34;106036;1258;72952;-80
2024/01/01 04:21:13;;;;;;;;;;;;;;;6.47;62.94;100709.49;106096;1258;68336;-80
2024/01/01 04:23:47;;;;;;;;;;;;;;;6.43;63.03;100705.85;106070;1258;72695;-80
2024/01/01 04:26:21;;;;;;;;;;;;;;;6.41;63.28;100705.00;105961;1253;60861;-79
2024/01/01 08:31:01;;;;;;;;;;;;;;;12.14;61.63;100520.65;105925;1267;60432;-78
2024/01/01 08:33:41;;;;;;;;;;;;;;;12.21;62.12;100518.17;105940;1257;73845;-78
2024/01/01 08:36:21;;;;;;;;;;;;;;;12.37;61.92;100516.36;106061;1251;67207;-78
2024/01/01 08:39:01;;;;;;;;;;;;;;;12.45;62.26;100511.03;106641;1258;72702;-80
2024/01/01 08:41:51;;;;;;;;;;;;;;;12.56;62.70;100505.15;106058;1254;60585;-78
2024/01/01 08:44:25;;;;;;;;;;;;;;;12.70;62.85;100505.38;105980;1256;60355;-78
2024/01/01 08:47:06;;;;;;;;;;;;;;;12.89;62.31;100502.34;105903;1254;72909;-82
2024/01/01 08:49:45;;;;;;;;;;;;;;;13.00;62.64;100498.05;105938;1260;71231;-79
2024/01/01 08:52:25;;;;;;;;;;;;;;;13.15;62.29;100493.35;106542;1254;71941;-81
2024/01/01 08:55:06;;;;;;;;;;;;;;;13.25;62.36;100479.73;105941;1254;60532;-79
2024/01/01 08:57:46;;;;;;;;;;;;;;;13.39;62.36;100476.45;105903;1254;61274;-79
2024/01/01 09:00:26;;;;;;;;;;;;;;;13.56;62.20;100465.27;106032;1258;73144;-82
2024/01/01 09:03:06;;;;;;;;;;;;;;;13.87;61.52;100458.49;105957;1260;67191;-79
2024/01/01 09:05:46;;;;;;;;;;;;;;;14.04;61.40;100455.99;106508;1256;73489;-79
2024/01/01 09:08:14;;;;;;;;;;;;;;;14.17;60.84;100452.64;106366;1255;63180;-79
2024/01/01 09:10:54;;;;;;;;;;;;;;;14.29;60.78;100445.41;106376;1253;60459;-79
2024/01/01 09:13:34;;;;;;;;;;;;;;;14.48;60.44;100443.27;106762;1257;73352;-79
2024/01/01 09:16:08;;;;;;;;;;;;;;;14.55;60.49;100435.46;106121;1254;67815;-80
2024/01/01 09:18:42;;;;;;;;;;;;;;;14.68;60.02;100427.58;106302;1254;71400;-81
2024/01/01 09:21:24;;;;;;;;;;;;;;;14.78;59.35;100428.39;106138;1254;60527;-78
2024/01/01 09:24:04;;;;;;;;;;;;;;;14.88;58.69;100417.12;106140;1252;60440;-78
2024/01/01 09:26:38;;;;;;;;;;;;;;;15.13;57.76;100412.60;106309;1257;73703;-78
2024/01/01 09:29:12;;;;;;;;;;;;;;;15.19;57.44;100408.82;105955;1254;70354;-82
2024/01/01 09:31:52;;;;;;;;;;;;;;;15.41;56.57;100406.27;106309;1258;71358;-78
2024/01/01 09:34:26;;;;;;;;;;;;;;;15.45;56.14;100401.27;106466;1257;60602;-80
2024/01/01 09:37:00;;;;;;;;;;;;;;;15.59;55.44;100396.89;106018;1254;60470;-80
2024/01/01 09:39:31;;;;;;;;;;;;;;;15.60;54.87;100386.45;106557;1254;73885;-79
2024/01/01 09:42:05;;;;;;;;;;;;;;;15.75;54.05;100379.05;106560;1254;67389;-77
2024/01/01 09:44:45;;;;;;;;;;;;;;;15.76;53.44;100380.56;106021;1257;71706;-79
2024/01/01 09:47:20;;;;;;;;;;;;;;;15.75;52.44;100374.81;106023;1257;60540;-82
2024/01/01 09:49:48;;;;;;;;;;;;;;;15.70;51.61;100369.08;106114;1255;61305;-81
2024/01/01 09:52:16;;;;;;;;;;;;;;;15.75;51.45;100362.55;105961;1254;72975;-82
2024/01/01 09:54:50;;;;;;;;;;;;;;;15.68;51.18;100355.75;106067;1256;70612;-78
2024/01/01 09:57:24;;;;;;;;;;;;;;;15.51;51.50;100349.67;105995;1254;71435;-79
2024/01/01 09:59:51;;;;;;;;;;;;;;;15.36;51.44;100341.48;106052;1254;60551;-82
2024/01/01 10:02:21;;;;;;;;;;;;;;;15.44;50.91;100338.23;106093;1259;60462;-78
2024/01/01 10:05:12;;;;;;;;;;;;;;;15.56;50.55;100336.16;107147;1254;72948;-77
2024/01/01 10:07:47;;;;;;;;;;;;;;;15.60;50.00;100330.15;106128;1257;67141;-80
2024/01/01 10:10:32;;;;;;;;;;;;;;;15.39;50.38;100326.92;106142;1254;72688;-80
2024/01/01 10:13:15;;;;;;;;;;;;;;;15.24;50.23;100315.06;106057;1253;60890;-82
2024/01/01 10:15:44;;;;;;;;;;;;;;;15.33;49.59;100309.77;106024;1254;60345;-77
2024/01/01 10:18:18;;;;;;;;;;;;;;;15.33;49.53;100310.00;106052;1258;73839;-81
2024/01/01 10:20:47;;;;;;;;;;;;;;;15.39;49.00;100301.63;105908;1254;67731;-81
2024/01/01 10:23:20;;;;;;;;;;;;;;;15.34;48.70;100297.83;106222;1254;72651;-78
2024/01/01 10:25:58;;;;;;;;;;;;;;;15.17;48.97;100294.59;106559;1253;60541;-78
2024/01/01 10:28:32;;;;;;;;;;;;;;;15.12;48.95;100289.73;106796;1256;59295;-79
2024/01/01 10:31:00;;;;;;;;;;;;;;;14.87;49.30;100293.70;106013;1254;73913;-78
2024/01/01 10:33:34;;;;;;;;;;;;;;;14.78;49.41;100283.34;105890;1254;67902;-78
2024/01/01 10:36:09;;;;;;;;;;;;;;;14.78;49.41;100277.94;106214;1253;72636;-78
2024/01/01 10:38:37;;;;;;;;;;;;;;;14.87;49.31;100271.86;106201;1253;60414;-78
2024/01/01 10:41:11;;;;;;;;;;;;;;;14.88;49.27;100264.16;106130;1251;60302;-78
2024/01/01 10:43:45;;;;;;;;;;;;;;;14.78;49.60;100266.55;106051;1257;73825;-79
2024/01/01 10:46:14;;;;;;;;;;;;;;;14.79;49.45;100254.65;106250;1253;67370;-78
2024/01/01 10:48:42;;;;;;;;;;;;;;;14.78;49.42;100252.75;106128;1253;75207;-80
2024/01/01 10:51:17;;;;;;;;;;;;;;;14.77;49.40;100247.13;106877;1253;60512;-78
2024/01/01 10:53:58;;;;;;;;;;;;;;;14.72;49.49;100248.66;106100;1254;60435;-79
2024/01/01 10:56:32;;;;;;;;;;;;;;;14.74;49.24;100242.50;106153;1253;73172;-79
2024/01/01 10:59:06;;;;;;;;;;;;;;;14.72;49.11;100239.27;106082;1257;68381;-80
2024/01/01 11:01:40;;;;;;;;;;;;;;;14.58;49.28;100243.71;106268;1258;72778;-80
2024/01/01 11:04:09;;;;;;;;;;;;;;;14.52;49.38;100236.23;106381;1255;60400;-80
2024/01/01 11:06:44;;;;;;;;;;;;;;;14.46;49.53;100231.64;106072;1259;60495;-79
2024/01/01 11:09:19;;;;;;;;;;;;;;;14.47;49.60;100226.73;106175;1254;72043;-80
2024/01/01 11:11:53;;;;;;;;;;;;;;;14.43;49.63;100221.27;106257;1260;68350;-80
2024/01/01 11:14:25;;;;;;;;;;;;;;;14.37;49.76;100215.68;106210;1255;72791;-79
2024/01/01 11:17:00;;;;;;;;;;;;;;;14.44;49.79;100208.34;106236;1254;60474;-78
2024/01/01 11:19:43;;;;;;;;;;;;;;;14.50;49.81;100206.38;106111;1253;60438;-79
2024/01/01 11:22:23;;;;;;;;;;;;;;;14.41;50.02;100204.65;106039;1254;72689;-79
2024/01/01 11:24:52;;;;;;;;;;;;;;;14.40;50.04;100196.05;106445;1253;67569;-80
2024/01/01 11:27:26;;;;;;;;;;;;;;;14.34;50.26;100190.56;106080;1259;75205;-79
2024/01/01 11:30:04;;;;;;;;;;;;;;;14.61;49.56;100190.80;106177;1257;60536;-78
2024/01/01 11:32:38;;;;;;;;;;;;;;;14.56;49.61;100189.01;106145;1253;60489;-79
2024/01/01 11:35:07;;;;;;;;;;;;;;;14.36;50.15;100185.08;106226;1254;73587;-79
2024/01/01 11:37:42;;;;;;;;;;;;;;;14.37;50.43;100184.48;106148;1257;68401;-79
2024/01/01 11:40:10;;;;;;;;;;;;;;;14.49;50.09;100184.75;106842;1253;71382;-80
2024/01/01 11:42:43;;;;;;;;;;;;;;;14.48;50.00;100185.58;106174;1256;60845;-79
2024/01/01 11:45:19;;;;;;;;;;;;;;;14.45;50.14;100187.12;106243;1258;60457;-79
2024/01/01 11:47:56;;;;;;;;;;;;;;;14.46;50.32;100180.05;106170;1251;72616;-78
2024/01/01 11:50:29;;;;;;;;;;;;;;;14.39;50.30;100176.98;106628;1257;68439;-77
2024/01/01 11:53:03;;;;;;;;;;;;;;;14.34;50.42;100170.45;106139;1258;72725;-78
2024/01/01 11:55:38;;;;;;;;;;;;;;;14.41;50.31;100165.88;106054;1253;60422;-78
2024/01/01 11:58:06;;;;;;;;;;;;;;;14.62;49.93;100164.04;106523;1253;60446;-78
2024/01/01 12:00:38;;;;;;;;;;;;;;;14.64;49.92;100157.45;106226;1257;73068;-80
2024/01/01 12:03:12;;;;;;;;;;;;;;;14.64;49.95;100153.81;106074;1253;68815;-80
2024/01/01 12:05:45;;;;;;;;;;;;;;;14.57;50.05;100149.36;105991;1253;71466;-79
2024/01/01 12:08:14;;;;;;;;;;;;;;;14.65;50.09;100140.52;106288;1258;60269;-80
2024/01/01 12:10:57;;;;;;;;;;;;;;;14.76;49.90;100138.82;105929;1259;60433;-80
2024/01/01 12:13:31;;;;;;;;;;;;;;;14.83;49.85;100137.91;106224;1255;73319;-78
2024/01/01 12:16:17;;;;;;;;;;;;;;;14.83;49.92;100132.39;105981;1258;68502;-78
2024/01/01 12:18:45;;;;;;;;;;;;;;;14.89;49.98;100127.71;106082;1254;71470;-79
2024/01/01 12:21:20;;;;;;;;;;;;;;;15.00;49.74;100128.67;106327;1256;60798;-79
2024/01/01 12:24:04;;;;;;;;;;;;;;;15.06;49.61;100126.73;106141;1253;60987;-79
2024/01/01 12:26:33;;;;;;;;;;;;;;;15.04;49.69;100125.02;106794;1254;73950;-78
